Morristown Municipal Airport Morristown US
ICAO: KMMU
IATA: MMU
Category: Medium
Scheduled Services: No

Elevation: 187 ft
TransAlt. 18000 ft.

Airport Communications:
NEW YORK APP:127.6
ATIS:124.25
CLNC DEL:121.2
CTAF:118.1
NEW YORK DEP:119.2
GND:121.7
TWR:118.1

KMMU Zoom In..

Runways:

(A) RW 05 length 5998 ft width 150 ft
---- / hdg 49

(B) RW 13 length 3997 ft width 150 ft
---- / hdg 127

(C) RW 23 length 5998 ft width 150 ft
ILS 110.30 / hdg 229

(D) RW 31 length 3997 ft width 150 ft
---- / hdg 307

Location; KMMU
Day. 19 / Time. 20.50 Zulu
* Altimeter: 29.84
* Temperature: 06° c. 42.8°f.
* Wind from: 340° Speed 12 kn with Gusts up to 18 kn.
Dewpoint: 00° c.
Visibility: 7 Statute Miles.
Clouds: Scattered 4700 ft.
Clouds: Overcast 5500 ft.
Conditions: Light Rain.

KMMU 192050Z 34012G18KT 7SM -RA SCT047 OVC055 06/00 A2984


Wind From 340°
Speed 12 kn.

  YouTube Music Video
 
jpsmedia.com for Web Design  worldairports.se 2018   terms of use